createdAt,value
2022-12-16T00:01:23.010Z,17.53
2022-12-16T00:03:49.718Z,17.60
2022-12-16T00:06:13.737Z,16.67
2022-12-16T00:08:40.000Z,17.13
2022-12-16T00:11:02.396Z,17.30
2022-12-16T00:13:23.885Z,17.67
2022-12-16T00:15:46.732Z,16.57
2022-12-16T00:18:08.239Z,16.80
2022-12-16T00:20:29.946Z,17.93
2022-12-16T00:22:51.701Z,17.90
2022-12-16T00:25:13.160Z,17.03
2022-12-16T00:27:34.652Z,17.17
2022-12-16T00:29:56.114Z,16.97
2022-12-16T00:32:17.608Z,16.33
2022-12-16T00:34:39.294Z,17.10
2022-12-16T00:37:00.840Z,16.67
2022-12-16T00:39:22.303Z,17.43
2022-12-16T00:41:43.808Z,16.57
2022-12-16T00:44:05.583Z,16.00
2022-12-16T00:46:27.126Z,15.90
2022-12-16T00:48:48.667Z,18.07
2022-12-16T00:51:10.162Z,16.83
2022-12-16T00:53:32.165Z,16.40
2022-12-16T00:56:08.526Z,14.93
2022-12-16T00:58:30.145Z,15.87
2022-12-16T01:00:51.794Z,16.00
2022-12-16T01:03:19.463Z,16.47
2022-12-16T01:05:42.891Z,14.77
2022-12-16T01:08:04.612Z,15.53
2022-12-16T01:10:26.150Z,14.10
2022-12-16T01:12:47.649Z,15.33
2022-12-16T01:15:12.501Z,14.60
2022-12-16T01:17:35.165Z,14.33
2022-12-16T01:19:56.623Z,14.20
2022-12-16T01:22:18.224Z,13.80
2022-12-16T01:24:39.805Z,14.83
2022-12-16T01:27:01.395Z,15.20
2022-12-16T01:29:22.900Z,13.23
2022-12-16T01:31:44.634Z,13.10
2022-12-16T01:34:06.157Z,14.47
2022-12-16T01:36:27.661Z,13.73
2022-12-16T01:38:49.560Z,14.63
2022-12-16T01:41:14.085Z,13.63
2022-12-16T01:43:37.921Z,14.37
2022-12-16T01:46:06.936Z,14.30
2022-12-16T01:48:43.605Z,13.73
2022-12-16T01:51:15.739Z,14.80
2022-12-16T01:53:40.062Z,15.67
2022-12-16T01:56:02.768Z,18.50
2022-12-16T01:58:30.626Z,15.90
2022-12-16T02:00:52.565Z,16.40
2022-12-16T02:03:16.595Z,18.60
2022-12-16T02:05:43.386Z,17.97
2022-12-16T02:08:13.874Z,19.17
2022-12-16T02:10:40.615Z,17.80
2022-12-16T02:13:21.728Z,18.13
2022-12-16T02:15:54.357Z,30.70
2022-12-16T02:18:53.264Z,33.27
2022-12-16T02:21:40.902Z,28.07
2022-12-16T02:24:02.583Z,24.63
2022-12-16T02:26:33.658Z,23.77
2022-12-16T02:29:16.561Z,15.03
2022-12-16T02:31:55.117Z,17.70
2022-12-16T02:34:30.188Z,19.00
2022-12-16T02:37:36.627Z,15.87
2022-12-16T02:40:28.287Z,17.10
2022-12-16T02:42:56.900Z,17.03
2022-12-16T02:45:24.282Z,15.93
2022-12-16T02:47:46.515Z,13.87
2022-12-16T02:50:21.232Z,13.17
2022-12-16T02:52:42.854Z,14.33
2022-12-16T02:55:09.070Z,17.63
2022-12-16T02:58:02.949Z,13.93
2022-12-16T03:00:25.472Z,13.87
2022-12-16T03:03:12.294Z,17.63
2022-12-16T03:05:48.139Z,18.00
2022-12-16T03:08:14.624Z,17.40
2022-12-16T03:10:43.439Z,17.40
2022-12-16T03:13:07.401Z,16.93
2022-12-16T03:15:33.054Z,17.13
2022-12-16T03:17:56.638Z,16.00
2022-12-16T03:20:34.793Z,17.63
2022-12-16T03:23:01.448Z,16.57
2022-12-16T03:25:23.345Z,15.30
2022-12-16T03:27:51.216Z,11.43
2022-12-16T03:30:44.704Z,10.47
2022-12-16T03:33:19.131Z,13.10
2022-12-16T03:35:48.722Z,12.37
2022-12-16T03:38:12.367Z,12.37
2022-12-16T03:40:35.980Z,13.23
2022-12-16T03:42:58.159Z,13.13
2022-12-16T03:45:25.247Z,12.57
2022-12-16T03:47:53.760Z,11.17
2022-12-16T03:50:15.704Z,11.90
2022-12-16T03:52:37.274Z,12.30
2022-12-16T03:54:58.752Z,11.77
2022-12-16T03:57:20.205Z,10.80
2022-12-16T03:59:41.679Z,13.03
2022-12-16T04:02:03.347Z,13.80
2022-12-16T04:04:25.063Z,11.60
2022-12-16T04:07:06.528Z,12.77
2022-12-16T04:09:28.003Z,13.33
2022-12-16T04:12:08.192Z,12.17
2022-12-16T04:14:53.282Z,11.83
2022-12-16T04:17:33.759Z,11.83
2022-12-16T04:20:13.791Z,12.57
2022-12-16T04:22:58.563Z,11.47
2022-12-16T04:25:28.930Z,11.03
2022-12-16T04:27:50.476Z,12.67
2022-12-16T04:30:21.902Z,11.50
2022-12-16T04:33:02.058Z,10.33
2022-12-16T04:35:42.384Z,10.33
2022-12-16T04:38:22.666Z,11.50
2022-12-16T04:41:02.392Z,10.90
2022-12-16T04:43:42.700Z,11.50
2022-12-16T04:46:23.245Z,11.30
2022-12-16T04:49:03.462Z,11.60
2022-12-16T04:51:43.600Z,11.13
2022-12-16T04:54:23.648Z,10.67
2022-12-16T04:57:03.606Z,12.37
2022-12-16T04:59:47.964Z,11.10
2022-12-16T05:02:28.021Z,10.03
2022-12-16T05:05:08.366Z,10.73
2022-12-16T05:07:48.179Z,9.93
2022-12-16T05:10:28.375Z,9.67
2022-12-16T05:13:08.204Z,9.87
2022-12-16T05:15:48.718Z,9.70
2022-12-16T05:18:34.365Z,11.00
2022-12-16T05:21:19.713Z,10.80
2022-12-16T05:23:59.501Z,9.83
2022-12-16T05:26:39.668Z,11.07
2022-12-16T05:29:19.633Z,10.73
2022-12-16T05:31:59.809Z,10.30
2022-12-16T05:34:39.985Z,9.97
2022-12-16T05:37:19.981Z,11.00
2022-12-16T05:39:59.827Z,10.60
2022-12-16T05:42:40.118Z,11.17
2022-12-16T05:45:19.982Z,10.63
2022-12-16T05:47:59.892Z,9.83
2022-12-16T05:50:40.235Z,10.33
2022-12-16T05:53:20.354Z,10.20
2022-12-16T05:56:01.825Z,9.53
2022-12-16T05:58:42.244Z,10.10
2022-12-16T06:01:22.581Z,9.23
2022-12-16T06:04:02.578Z,9.50
2022-12-16T06:06:42.446Z,9.73
2022-12-16T06:09:23.341Z,9.63
2022-12-16T06:12:03.381Z,9.97
2022-12-16T06:14:43.613Z,9.20
2022-12-16T06:17:23.700Z,8.77
2022-12-16T06:20:03.727Z,8.93
2022-12-16T06:22:43.699Z,9.27
2022-12-16T06:25:24.120Z,9.43
2022-12-16T06:28:09.720Z,9.63
2022-12-16T06:30:49.830Z,8.87
2022-12-16T06:33:29.882Z,9.60
2022-12-16T06:36:10.262Z,10.17
2022-12-16T06:38:50.072Z,13.53
2022-12-16T06:41:30.260Z,11.97
2022-12-16T06:44:10.048Z,9.30
2022-12-16T06:46:50.170Z,9.53
2022-12-16T06:49:30.289Z,10.00
2022-12-16T06:52:10.137Z,10.03
2022-12-16T06:54:49.961Z,13.20
2022-12-16T06:57:29.690Z,13.37
2022-12-16T07:00:09.660Z,11.80
2022-12-16T07:02:49.835Z,11.60
2022-12-16T07:05:30.041Z,11.47
2022-12-16T07:08:10.567Z,11.23
2022-12-16T07:10:51.621Z,10.67
2022-12-16T07:13:35.258Z,12.93
2022-12-16T07:16:15.579Z,14.13
2022-12-16T07:18:55.901Z,11.90
2022-12-16T07:21:36.015Z,11.77
2022-12-16T07:24:16.204Z,12.23
2022-12-16T07:26:56.166Z,13.00
2022-12-16T07:29:36.206Z,11.80
2022-12-16T07:32:16.201Z,12.77
2022-12-16T07:34:55.921Z,14.10
2022-12-16T07:37:36.344Z,14.77
2022-12-16T07:40:16.177Z,14.70
2022-12-16T07:42:56.399Z,13.57
2022-12-16T07:45:41.698Z,12.63
2022-12-16T07:48:25.266Z,12.33
2022-12-16T07:51:05.282Z,12.63
2022-12-16T07:53:45.658Z,12.43
2022-12-16T07:56:26.339Z,12.83
2022-12-16T07:59:06.277Z,13.10
2022-12-16T08:01:46.418Z,13.03
2022-12-16T08:04:26.588Z,11.83
2022-12-16T08:07:06.389Z,13.43
2022-12-16T08:09:46.571Z,12.23
2022-12-16T08:12:26.664Z,13.33
2022-12-16T08:15:06.475Z,13.23
2022-12-16T08:17:46.805Z,12.77
2022-12-16T08:20:27.327Z,15.17
2022-12-16T08:23:07.511Z,16.70
2022-12-16T08:25:47.304Z,13.93
2022-12-16T08:28:27.172Z,12.47
2022-12-16T08:31:10.685Z,13.97
2022-12-16T08:33:50.903Z,12.77
2022-12-16T08:36:30.909Z,12.13
2022-12-16T08:39:11.222Z,12.87
2022-12-16T08:41:51.375Z,19.50
2022-12-16T08:44:31.200Z,24.50
2022-12-16T08:47:11.569Z,26.97
2022-12-16T08:49:52.615Z,22.00
2022-12-16T08:52:34.953Z,16.37
2022-12-16T08:55:15.077Z,15.07
2022-12-16T08:57:55.075Z,15.17
2022-12-16T09:00:36.615Z,15.20
2022-12-16T09:03:17.617Z,16.60
2022-12-16T09:05:58.219Z,17.87
2022-12-16T09:08:38.046Z,17.03
2022-12-16T09:11:21.160Z,16.03
2022-12-16T09:14:01.318Z,18.83
2022-12-16T09:16:41.521Z,23.30
2022-12-16T09:19:21.615Z,31.47
2022-12-16T09:22:01.732Z,25.57
2022-12-16T09:24:42.009Z,16.90
2022-12-16T09:27:41.917Z,16.13
2022-12-16T09:30:22.635Z,15.93
2022-12-16T09:33:03.555Z,15.53
2022-12-16T09:35:43.728Z,15.43
2022-12-16T09:38:23.519Z,14.90
2022-12-16T09:41:03.587Z,16.73
2022-12-16T09:44:06.313Z,20.63
2022-12-16T09:46:52.734Z,21.57
2022-12-16T09:50:09.942Z,28.67
2022-12-16T09:52:56.010Z,25.20
2022-12-16T09:55:44.127Z,26.27
2022-12-16T09:58:24.982Z,31.33
2022-12-16T10:01:05.589Z,34.23
2022-12-16T10:03:56.353Z,34.93
2022-12-16T10:06:55.924Z,32.20
2022-12-16T10:10:04.185Z,22.50
2022-12-16T10:12:55.547Z,18.93
2022-12-16T10:15:44.888Z,19.20
2022-12-16T10:18:36.707Z,17.60
2022-12-16T10:21:17.164Z,17.97
2022-12-16T10:24:11.874Z,17.40
2022-12-16T10:27:26.638Z,19.23
2022-12-16T10:30:06.621Z,19.00
2022-12-16T10:32:59.003Z,16.90
2022-12-16T10:35:49.774Z,15.97
2022-12-16T10:38:57.629Z,16.77
2022-12-16T10:41:39.379Z,15.70
2022-12-16T10:44:23.868Z,15.27
2022-12-16T10:47:04.129Z,14.90
2022-12-16T10:49:43.995Z,15.40
2022-12-16T10:52:24.846Z,13.60
2022-12-16T10:55:16.432Z,15.33
2022-12-16T10:58:04.620Z,15.03
2022-12-16T11:01:03.642Z,15.83
2022-12-16T11:03:47.131Z,15.77
2022-12-16T11:06:29.328Z,15.40
2022-12-16T11:09:09.556Z,17.07
2022-12-16T11:11:50.187Z,18.23
2022-12-16T11:15:05.581Z,20.20
2022-12-16T11:17:47.188Z,18.90
2022-12-16T11:20:37.940Z,15.93
2022-12-16T11:23:39.641Z,16.10
2022-12-16T11:26:37.981Z,13.90
2022-12-16T11:29:30.924Z,13.00
2022-12-16T11:32:22.309Z,9.90
2022-12-16T11:35:08.011Z,11.77
2022-12-16T11:37:50.975Z,10.83
2022-12-16T11:40:37.150Z,13.37
2022-12-16T11:43:19.528Z,12.27
2022-12-16T11:46:00.732Z,10.10
2022-12-16T11:49:03.365Z,9.53
2022-12-16T11:51:46.834Z,9.30
2022-12-16T11:54:36.119Z,9.73
2022-12-16T11:57:19.811Z,11.40
2022-12-16T12:00:07.275Z,10.90
2022-12-16T12:02:55.845Z,9.00
2022-12-16T12:05:40.945Z,9.97
2022-12-16T12:08:34.040Z,11.07
2022-12-16T12:11:27.239Z,11.83
2022-12-16T12:14:10.087Z,10.63
2022-12-16T12:17:02.185Z,12.20
2022-12-16T12:19:56.173Z,15.90
2022-12-16T12:22:56.970Z,17.33
2022-12-16T12:25:41.274Z,12.73
2022-12-16T12:28:33.496Z,11.37
2022-12-16T12:31:50.092Z,11.33
2022-12-16T12:34:48.187Z,10.83
2022-12-16T12:37:37.612Z,10.37
2022-12-16T12:40:59.233Z,10.27
2022-12-16T12:43:51.478Z,10.27
2022-12-16T12:46:51.588Z,10.43
2022-12-16T12:49:52.813Z,9.53
2022-12-16T12:53:00.870Z,8.40
2022-12-16T12:56:01.180Z,9.03
2022-12-16T12:58:42.429Z,7.40
2022-12-16T13:01:25.932Z,8.80
2022-12-16T13:04:09.405Z,8.53
2022-12-16T13:06:50.560Z,8.63
2022-12-16T13:10:00.548Z,9.90
2022-12-16T13:12:43.122Z,9.33
2022-12-16T13:15:27.956Z,9.63
2022-12-16T13:18:20.236Z,13.23
2022-12-16T13:21:00.635Z,9.20
2022-12-16T13:23:54.672Z,8.57
2022-12-16T13:26:36.512Z,7.23
2022-12-16T13:29:45.784Z,6.77
2022-12-16T13:32:25.840Z,7.60
2022-12-16T13:35:18.475Z,8.03
2022-12-16T13:37:58.342Z,8.43
2022-12-16T13:40:42.329Z,8.40
2022-12-16T13:43:23.963Z,7.43
2022-12-16T13:46:19.675Z,9.17
2022-12-16T13:49:00.914Z,6.80
2022-12-16T13:51:56.509Z,8.20
2022-12-16T13:54:36.742Z,9.83
2022-12-16T13:57:20.633Z,8.37
2022-12-16T14:00:02.115Z,8.37
2022-12-16T14:02:50.520Z,8.93
2022-12-16T14:05:53.740Z,8.20
2022-12-16T14:08:37.092Z,8.27
2022-12-16T14:11:21.203Z,8.67
2022-12-16T14:14:27.007Z,9.57
2022-12-16T14:17:17.541Z,9.17
2022-12-16T14:20:00.489Z,10.57
2022-12-16T14:22:59.882Z,8.40
2022-12-16T14:25:41.764Z,8.43
2022-12-16T14:28:45.477Z,9.40
2022-12-16T14:31:34.666Z,9.73
2022-12-16T14:34:14.846Z,10.87
2022-12-16T14:36:58.001Z,10.20
2022-12-16T14:39:50.038Z,11.17
2022-12-16T14:42:41.292Z,10.00
2022-12-16T14:45:21.711Z,9.23
2022-12-16T14:48:01.590Z,8.10
2022-12-16T14:50:47.718Z,8.47
2022-12-16T14:53:42.151Z,8.17
2022-12-16T14:56:49.095Z,7.90
2022-12-16T14:59:33.000Z,7.93
2022-12-16T15:02:15.909Z,7.23
2022-12-16T15:04:56.632Z,7.93
2022-12-16T15:07:37.080Z,7.43
2022-12-16T15:10:19.635Z,7.50
2022-12-16T15:13:03.057Z,7.37
2022-12-16T15:15:51.381Z,7.20
2022-12-16T15:18:38.101Z,7.37
2022-12-16T15:21:18.225Z,7.23
2022-12-16T15:24:01.565Z,6.60
2022-12-16T15:26:44.711Z,7.47
2022-12-16T15:29:58.566Z,7.20
2022-12-16T15:32:51.011Z,6.73
2022-12-16T15:35:53.098Z,5.80
2022-12-16T15:38:39.292Z,6.70
2022-12-16T15:41:21.344Z,7.17
2022-12-16T15:44:04.515Z,7.17
2022-12-16T15:46:48.843Z,7.27
2022-12-16T15:49:47.385Z,7.27
2022-12-16T15:52:49.770Z,10.50
2022-12-16T15:55:57.055Z,9.43
2022-12-16T15:58:41.725Z,8.63
2022-12-16T16:01:22.112Z,8.47
2022-12-16T16:04:08.709Z,7.80
2022-12-16T16:06:49.720Z,8.47
2022-12-16T16:09:41.252Z,8.73
2022-12-16T16:12:21.601Z,9.43
2022-12-16T16:15:01.617Z,10.90
2022-12-16T16:17:42.208Z,11.60
2022-12-16T16:20:22.933Z,11.10
2022-12-16T16:23:02.750Z,12.00
2022-12-16T16:25:43.498Z,12.17
2022-12-16T16:28:25.284Z,12.00
2022-12-16T16:31:05.576Z,12.63
2022-12-16T16:33:53.006Z,12.63
2022-12-16T16:36:34.131Z,13.27
2022-12-16T16:39:14.353Z,13.53
2022-12-16T16:41:54.609Z,14.40
2022-12-16T16:44:34.503Z,13.53
2022-12-16T16:47:15.758Z,13.27
2022-12-16T16:50:01.568Z,17.33
2022-12-16T16:52:43.733Z,13.47
2022-12-16T16:55:25.319Z,14.93
2022-12-16T16:58:05.867Z,16.20
2022-12-16T17:00:46.182Z,15.30
2022-12-16T17:03:26.351Z,16.03
2022-12-16T17:06:06.739Z,15.57
2022-12-16T17:08:46.694Z,14.60
2022-12-16T17:11:37.835Z,13.90
2022-12-16T17:14:17.609Z,14.70
2022-12-16T17:16:58.546Z,14.00
2022-12-16T17:19:38.374Z,16.10
2022-12-16T17:22:18.288Z,13.67
2022-12-16T17:24:58.493Z,14.17
2022-12-16T17:27:41.619Z,13.77
2022-12-16T17:30:23.156Z,13.83
2022-12-16T17:33:03.327Z,13.27
2022-12-16T17:35:43.167Z,14.00
2022-12-16T17:38:23.001Z,14.10
2022-12-16T17:41:10.361Z,18.27
2022-12-16T17:43:50.432Z,17.83
2022-12-16T17:46:30.784Z,16.67
2022-12-16T17:49:12.515Z,13.70
2022-12-16T17:51:52.744Z,15.33
2022-12-16T17:54:33.196Z,15.70
2022-12-16T17:57:13.373Z,16.73
2022-12-16T17:59:54.826Z,16.47
2022-12-16T18:02:35.224Z,16.17
2022-12-16T18:05:15.268Z,16.00
2022-12-16T18:07:55.499Z,15.20
2022-12-16T18:10:35.338Z,15.40
2022-12-16T18:13:15.577Z,15.43
2022-12-16T18:15:55.997Z,14.93
2022-12-16T18:18:36.057Z,15.70
2022-12-16T18:21:16.076Z,15.57
2022-12-16T18:23:56.205Z,16.30
2022-12-16T18:26:36.799Z,15.73
2022-12-16T18:29:16.636Z,16.10
2022-12-16T18:31:56.922Z,16.20
2022-12-16T18:34:37.179Z,16.10
2022-12-16T18:37:17.310Z,16.37
2022-12-16T18:39:57.520Z,15.93
2022-12-16T18:42:37.429Z,17.77
2022-12-16T18:45:17.375Z,17.50
2022-12-16T18:47:57.358Z,16.77
2022-12-16T18:50:38.204Z,17.73
2022-12-16T18:53:18.173Z,16.90
2022-12-16T18:55:58.352Z,18.60
2022-12-16T18:58:53.589Z,18.10
2022-12-16T19:01:33.495Z,19.20
2022-12-16T19:04:15.198Z,20.07
2022-12-16T19:06:55.927Z,20.30
2022-12-16T19:09:35.895Z,19.60
2022-12-16T19:12:26.385Z,19.47
2022-12-16T19:15:06.392Z,18.27
2022-12-16T19:17:46.352Z,18.93
2022-12-16T19:20:32.878Z,16.93
2022-12-16T19:23:13.313Z,16.87
2022-12-16T19:25:53.506Z,15.07
2022-12-16T19:28:35.457Z,15.87
2022-12-16T19:31:15.917Z,15.77
2022-12-16T19:33:56.164Z,16.23
2022-12-16T19:36:36.165Z,16.07
2022-12-16T19:39:16.077Z,15.50
2022-12-16T19:41:56.355Z,16.57
2022-12-16T19:44:36.253Z,16.23
2022-12-16T19:47:16.223Z,16.43
2022-12-16T19:49:56.344Z,16.83
2022-12-16T19:52:36.333Z,16.10
2022-12-16T19:55:17.698Z,17.47
2022-12-16T19:57:57.855Z,17.40
2022-12-16T20:00:37.922Z,18.17
2022-12-16T20:03:17.845Z,17.33
2022-12-16T20:05:57.661Z,17.17
2022-12-16T20:08:37.762Z,17.37
2022-12-16T20:11:23.531Z,23.27
2022-12-16T20:14:03.346Z,21.83
2022-12-16T20:16:43.543Z,19.90
2022-12-16T20:19:23.820Z,19.40
2022-12-16T20:22:06.896Z,18.13
2022-12-16T20:24:48.660Z,19.57
2022-12-16T20:27:29.422Z,19.00
2022-12-16T20:30:09.956Z,17.43
2022-12-16T20:32:49.908Z,17.83
2022-12-16T20:35:29.902Z,17.80
2022-12-16T20:38:11.842Z,18.47
2022-12-16T20:40:51.516Z,16.93
2022-12-16T20:43:31.997Z,17.87
2022-12-16T20:46:15.317Z,18.90
2022-12-16T20:48:56.463Z,17.77
2022-12-16T20:51:36.684Z,18.83
2022-12-16T20:54:16.487Z,20.40
2022-12-16T20:56:56.565Z,20.97
2022-12-16T20:59:36.483Z,20.50
2022-12-16T21:02:26.832Z,19.83
2022-12-16T21:05:10.599Z,20.70
2022-12-16T21:07:51.080Z,21.73
2022-12-16T21:10:31.543Z,21.80
2022-12-16T21:13:11.387Z,20.90
2022-12-16T21:15:51.151Z,21.00
2022-12-16T21:18:33.497Z,21.37
2022-12-16T21:21:14.110Z,21.93
2022-12-16T21:23:54.081Z,24.73
2022-12-16T21:26:36.304Z,22.47
2022-12-16T21:29:16.500Z,23.60
2022-12-16T21:31:56.623Z,22.23
2022-12-16T21:34:36.755Z,23.97
2022-12-16T21:37:16.892Z,34.33
2022-12-16T21:39:56.992Z,30.60
2022-12-16T21:42:39.765Z,31.33
2022-12-16T21:45:23.991Z,28.43
2022-12-16T21:48:03.896Z,38.27
2022-12-16T21:50:44.177Z,36.40
2022-12-16T21:53:24.504Z,35.13
2022-12-16T21:56:13.565Z,35.57
2022-12-16T21:58:53.388Z,29.67
2022-12-16T22:01:34.848Z,26.03
2022-12-16T22:04:14.958Z,25.03
2022-12-16T22:06:55.179Z,23.20
2022-12-16T22:09:36.490Z,22.37
2022-12-16T22:12:16.670Z,23.80
2022-12-16T22:14:56.689Z,24.03
2022-12-16T22:17:36.906Z,27.37
2022-12-16T22:20:17.051Z,25.77
2022-12-16T22:22:56.871Z,26.47
2022-12-16T22:25:36.979Z,25.93
2022-12-16T22:28:16.837Z,26.97
2022-12-16T22:30:57.152Z,26.53
2022-12-16T22:33:37.320Z,28.00
2022-12-16T22:36:25.349Z,28.90
2022-12-16T22:39:05.767Z,28.30
2022-12-16T22:41:45.895Z,28.87
2022-12-16T22:44:26.898Z,27.60
2022-12-16T22:47:07.027Z,27.40
2022-12-16T22:49:47.155Z,27.97
2022-12-16T22:52:27.480Z,28.63
2022-12-16T22:55:07.363Z,29.07
2022-12-16T22:57:51.092Z,29.23
2022-12-16T23:00:34.048Z,30.17
2022-12-16T23:03:16.003Z,29.37
2022-12-16T23:06:06.539Z,30.23
2022-12-16T23:08:46.799Z,30.00
2022-12-16T23:11:37.483Z,28.63
2022-12-16T23:14:17.395Z,25.33
2022-12-16T23:16:57.689Z,24.00
2022-12-16T23:19:37.852Z,27.40
2022-12-16T23:22:17.933Z,24.23
2022-12-16T23:24:58.088Z,12.40
2022-12-16T23:27:48.911Z,13.60
2022-12-16T23:30:29.583Z,24.33
2022-12-16T23:33:21.466Z,25.40
2022-12-16T23:36:01.539Z,23.83
2022-12-16T23:38:41.413Z,22.67
2022-12-16T23:41:21.528Z,14.27
2022-12-16T23:44:02.633Z,11.17
2022-12-16T23:46:42.845Z,29.93
2022-12-16T23:49:22.978Z,29.77
2022-12-16T23:52:02.757Z,43.90
2022-12-16T23:54:42.779Z,32.23
2022-12-16T23:57:23.088Z,17.37
